createdAt,value
2022-08-12T00:02:44.190Z,2.63
2022-08-12T00:05:31.949Z,2.90
2022-08-12T00:08:17.248Z,2.60
2022-08-12T00:11:15.944Z,2.77
2022-08-12T00:14:01.303Z,2.70
2022-08-12T00:16:47.143Z,2.57
2022-08-12T00:19:32.868Z,2.63
2022-08-12T00:22:18.985Z,3.20
2022-08-12T00:25:04.876Z,3.27
2022-08-12T00:27:51.486Z,3.10
2022-08-12T00:30:36.788Z,2.50
2022-08-12T00:33:22.487Z,2.90
2022-08-12T00:36:09.803Z,2.63
2022-08-12T00:39:03.190Z,2.47
2022-08-12T00:41:49.255Z,2.43
2022-08-12T00:44:21.885Z,2.50
2022-08-12T00:46:53.411Z,2.70
2022-08-12T00:49:24.063Z,2.60
2022-08-12T00:52:09.669Z,2.70
2022-08-12T00:54:41.303Z,2.87
2022-08-12T00:57:11.757Z,2.50
2022-08-12T00:59:47.271Z,2.20
2022-08-12T01:02:23.609Z,2.30
2022-08-12T01:05:12.125Z,2.90
2022-08-12T01:07:58.492Z,2.63
2022-08-12T01:10:44.860Z,3.67
2022-08-12T01:13:19.766Z,2.90
2022-08-12T01:15:51.186Z,2.60
2022-08-12T01:18:21.384Z,2.77
2022-08-12T01:20:54.656Z,2.63
2022-08-12T01:23:48.643Z,2.80
2022-08-12T01:26:20.907Z,2.97
2022-08-12T01:28:51.172Z,3.23
2022-08-12T01:31:20.837Z,3.47
2022-08-12T01:33:59.692Z,2.63
2022-08-12T01:36:29.165Z,2.60
2022-08-12T01:39:00.309Z,3.27
2022-08-12T01:41:32.521Z,2.63
2022-08-12T01:44:02.272Z,3.00
2022-08-12T01:46:45.383Z,3.13
2022-08-12T01:49:37.055Z,2.50
2022-08-12T01:52:21.246Z,2.40
2022-08-12T01:54:51.687Z,2.77
2022-08-12T01:57:58.358Z,2.80
2022-08-12T02:00:15.299Z,2.53
2022-08-12T02:02:47.269Z,2.67
2022-08-12T02:05:40.827Z,3.03
2022-08-12T02:08:45.877Z,2.80
2022-08-12T02:11:21.407Z,2.57
2022-08-12T02:14:32.099Z,2.60
2022-08-12T02:17:09.374Z,2.87
2022-08-12T02:19:49.529Z,2.57
2022-08-12T02:22:28.720Z,2.90
2022-08-12T02:25:04.391Z,3.00
2022-08-12T02:27:39.383Z,2.90
2022-08-12T02:30:11.441Z,2.43
2022-08-12T02:32:41.814Z,2.77
2022-08-12T02:35:17.431Z,2.97
2022-08-12T02:37:45.420Z,3.30
2022-08-12T02:40:15.044Z,2.83
2022-08-12T02:42:51.306Z,3.10
2022-08-12T02:45:26.874Z,2.93
2022-08-12T02:48:00.803Z,2.43
2022-08-12T02:50:32.425Z,2.50
2022-08-12T02:53:01.407Z,2.57
2022-08-12T02:55:36.036Z,2.40
2022-08-12T02:58:09.211Z,2.80
2022-08-12T03:00:42.748Z,3.23
2022-08-12T03:03:13.140Z,2.87
2022-08-12T03:05:48.616Z,2.90
2022-08-12T03:08:31.905Z,3.00
2022-08-12T03:11:03.713Z,3.13
2022-08-12T03:13:38.992Z,3.07
2022-08-12T03:16:08.753Z,2.73
2022-08-12T03:18:36.739Z,2.70
2022-08-12T03:21:05.205Z,2.40
2022-08-12T03:23:32.836Z,3.40
2022-08-12T03:26:02.429Z,2.63
2022-08-12T03:28:54.370Z,2.70
2022-08-12T03:31:28.290Z,2.80
2022-08-12T03:34:01.626Z,3.20
2022-08-12T03:36:33.482Z,3.40
2022-08-12T03:39:17.246Z,2.60
2022-08-12T03:41:51.080Z,3.43
2022-08-12T03:44:43.865Z,2.80
2022-08-12T03:47:37.772Z,2.90
2022-08-12T03:50:23.445Z,3.10
2022-08-12T03:53:09.062Z,2.90
2022-08-12T03:55:54.910Z,3.03
2022-08-12T03:58:41.162Z,2.70
2022-08-12T04:01:09.358Z,2.60
2022-08-12T04:03:53.997Z,3.23
2022-08-12T04:06:34.727Z,3.20
2022-08-12T04:09:15.846Z,2.50
2022-08-12T04:12:03.780Z,2.60
2022-08-12T04:14:33.902Z,2.90
2022-08-12T04:17:02.735Z,2.70
2022-08-12T04:19:32.141Z,3.07
2022-08-12T04:22:03.303Z,2.83
2022-08-12T04:24:34.583Z,3.40
2022-08-12T04:27:03.502Z,2.90
2022-08-12T04:30:16.872Z,2.83
2022-08-12T04:32:19.387Z,2.87
2022-08-12T04:34:48.406Z,2.90
2022-08-12T04:37:17.027Z,2.50
2022-08-12T04:39:46.806Z,2.50
2022-08-12T04:42:14.716Z,2.63
2022-08-12T04:44:43.322Z,2.63
2022-08-12T04:47:14.127Z,3.10
2022-08-12T04:49:42.312Z,3.10
2022-08-12T04:52:11.927Z,2.53
2022-08-12T04:54:39.822Z,2.60
2022-08-12T04:57:09.565Z,2.60
2022-08-12T04:59:46.947Z,2.87
2022-08-12T05:02:21.795Z,3.20
2022-08-12T05:04:52.657Z,2.70
2022-08-12T05:07:23.939Z,2.70
2022-08-12T05:10:01.063Z,2.50
2022-08-12T05:12:36.601Z,3.23
2022-08-12T05:15:18.988Z,2.93
2022-08-12T05:17:47.520Z,2.37
2022-08-12T05:20:16.543Z,2.97
2022-08-12T05:22:45.826Z,3.00
2022-08-12T05:25:13.720Z,2.57
2022-08-12T05:27:55.543Z,2.80
2022-08-12T05:30:27.172Z,2.70
2022-08-12T05:32:55.706Z,3.00
2022-08-12T05:35:27.939Z,2.93
2022-08-12T05:38:11.110Z,2.67
2022-08-12T05:40:38.750Z,2.93
2022-08-12T05:43:06.888Z,2.70
2022-08-12T05:45:34.520Z,2.90
2022-08-12T05:48:02.565Z,3.33
2022-08-12T05:50:30.208Z,2.80
2022-08-12T05:52:59.306Z,2.50
2022-08-12T05:55:31.223Z,2.43
2022-08-12T05:57:59.199Z,2.40
2022-08-12T06:00:29.250Z,2.50
2022-08-12T06:03:01.344Z,2.30
2022-08-12T06:05:30.393Z,2.40
2022-08-12T06:08:02.876Z,1.80
2022-08-12T06:10:32.411Z,2.20
2022-08-12T06:13:00.942Z,2.37
2022-08-12T06:15:29.063Z,2.33
2022-08-12T06:18:05.310Z,2.20
2022-08-12T06:20:42.284Z,2.03
2022-08-12T06:23:11.766Z,2.50
2022-08-12T06:25:40.605Z,2.40
2022-08-12T06:28:17.218Z,2.37
2022-08-12T06:30:53.127Z,2.13
2022-08-12T06:34:01.203Z,2.10
2022-08-12T06:36:22.646Z,2.47
2022-08-12T06:38:52.062Z,2.37
2022-08-12T06:41:39.511Z,2.10
2022-08-12T06:44:28.320Z,2.10
2022-08-12T06:46:56.887Z,2.20
2022-08-12T06:49:30.053Z,1.90
2022-08-12T06:51:57.738Z,1.97
2022-08-12T06:54:31.359Z,2.23
2022-08-12T06:57:05.329Z,2.53
2022-08-12T06:59:47.813Z,1.90
2022-08-12T07:02:15.472Z,2.03
2022-08-12T07:04:43.621Z,1.97
2022-08-12T07:07:12.483Z,2.40
2022-08-12T07:10:01.284Z,2.30
2022-08-12T07:12:32.120Z,2.00
2022-08-12T07:15:01.777Z,1.87
2022-08-12T07:17:35.647Z,2.00
2022-08-12T07:20:05.210Z,2.27
2022-08-12T07:22:33.302Z,1.77
2022-08-12T07:25:19.980Z,2.23
2022-08-12T07:27:47.718Z,1.90
2022-08-12T07:30:15.339Z,2.00
2022-08-12T07:32:49.727Z,2.07
2022-08-12T07:35:19.536Z,2.27
2022-08-12T07:37:50.727Z,1.70
2022-08-12T07:40:20.274Z,2.40
2022-08-12T07:42:47.999Z,2.00
2022-08-12T07:45:15.838Z,2.30
2022-08-12T07:47:44.140Z,2.00
2022-08-12T07:50:13.005Z,1.90
2022-08-12T07:52:43.710Z,2.00
2022-08-12T07:55:12.650Z,2.23
2022-08-12T07:57:57.722Z,1.93
2022-08-12T08:00:25.687Z,1.70
2022-08-12T08:02:54.488Z,2.10
2022-08-12T08:05:23.724Z,1.67
2022-08-12T08:07:53.235Z,1.88
2022-08-12T08:10:20.981Z,1.90
2022-08-12T08:12:54.788Z,2.10
2022-08-12T08:15:38.595Z,1.90
2022-08-12T08:18:25.813Z,1.83
2022-08-12T08:20:54.944Z,2.03
2022-08-12T08:23:34.967Z,2.20
2022-08-12T08:26:02.965Z,1.80
2022-08-12T08:28:36.474Z,2.10
2022-08-12T08:31:04.167Z,2.07
2022-08-12T08:34:05.251Z,2.33
2022-08-12T08:36:24.060Z,2.20
2022-08-12T08:38:57.934Z,2.00
2022-08-12T08:42:16.492Z,1.87
2022-08-12T08:44:38.059Z,2.10
2022-08-12T08:47:06.657Z,1.73
2022-08-12T08:49:37.100Z,2.00
2022-08-12T08:52:06.245Z,1.50
2022-08-12T08:54:34.367Z,2.03
2022-08-12T08:57:02.348Z,1.83
2022-08-12T08:59:30.221Z,2.03
2022-08-12T09:01:59.458Z,2.47
2022-08-12T09:05:11.708Z,1.80
2022-08-12T09:10:15.587Z,1.97
2022-08-12T09:16:00.546Z,2.23
2022-08-12T09:18:33.396Z,2.13
2022-08-12T09:21:03.704Z,2.17
2022-08-12T09:23:59.956Z,2.13
2022-08-12T09:26:22.770Z,1.83
2022-08-12T09:28:56.445Z,1.90
2022-08-12T09:32:06.462Z,2.30
2022-08-12T09:34:25.524Z,1.93
2022-08-12T09:37:02.884Z,1.87
2022-08-12T09:40:06.209Z,1.80
2022-08-12T09:43:15.972Z,2.00
2022-08-12T09:46:19.336Z,2.27
2022-08-12T09:48:35.282Z,1.97
2022-08-12T09:51:16.636Z,2.47
2022-08-12T09:54:09.114Z,2.07
2022-08-12T09:57:02.256Z,1.63
2022-08-12T10:00:14.954Z,1.87
2022-08-12T10:02:52.944Z,1.90
2022-08-12T10:05:01.898Z,2.00
2022-08-12T10:07:40.120Z,1.90
2022-08-12T10:10:24.419Z,2.17
2022-08-12T10:13:13.479Z,2.17
2022-08-12T10:16:02.801Z,1.70
2022-08-12T10:18:35.296Z,2.00
2022-08-12T10:21:07.981Z,2.00
2022-08-12T10:23:40.003Z,1.80
2022-08-12T10:26:38.457Z,1.87
2022-08-12T10:30:02.970Z,2.13
2022-08-12T10:32:21.538Z,2.17
2022-08-12T10:35:02.523Z,1.90
2022-08-12T10:38:33.327Z,2.17
2022-08-12T10:40:28.549Z,1.90
2022-08-12T10:43:17.164Z,2.07
2022-08-12T10:45:48.907Z,1.87
2022-08-12T10:48:21.379Z,1.97
2022-08-12T10:51:02.263Z,1.70
2022-08-12T10:53:46.058Z,2.40
2022-08-12T10:56:17.339Z,1.80
2022-08-12T10:58:46.917Z,1.60
2022-08-12T11:01:49.457Z,2.00
2022-08-12T11:04:35.857Z,1.80
2022-08-12T11:07:03.423Z,1.60
2022-08-12T11:10:01.089Z,1.90
2022-08-12T11:12:56.459Z,2.37
2022-08-12T11:15:24.232Z,1.50
2022-08-12T11:18:03.222Z,1.50
2022-08-12T11:20:31.481Z,2.03
2022-08-12T11:23:04.229Z,2.30
2022-08-12T11:25:57.403Z,1.80
2022-08-12T11:28:33.770Z,1.50
2022-08-12T11:31:02.726Z,2.13
2022-08-12T11:34:05.476Z,1.60
2022-08-12T11:36:21.918Z,1.83
2022-08-12T11:38:51.212Z,2.07
2022-08-12T11:41:31.076Z,1.80
2022-08-12T11:44:35.301Z,1.40
2022-08-12T11:46:51.276Z,1.47
2022-08-12T11:49:31.089Z,1.67
2022-08-12T11:52:01.676Z,1.60
2022-08-12T11:54:30.296Z,1.93
2022-08-12T11:57:00.346Z,1.73
2022-08-12T12:02:21.377Z,1.77
2022-08-12T12:04:52.868Z,1.90
2022-08-12T12:08:39.093Z,1.73
2022-08-12T12:10:12.625Z,1.83
2022-08-12T12:12:41.456Z,1.77
2022-08-12T12:15:12.532Z,1.90
2022-08-12T12:17:42.993Z,1.50
2022-08-12T12:20:12.911Z,1.40
2022-08-12T12:22:45.140Z,1.30
2022-08-12T12:25:14.024Z,1.70
2022-08-12T12:28:05.609Z,1.97
2022-08-12T12:30:37.368Z,1.60
2022-08-12T12:33:06.979Z,1.37
2022-08-12T12:36:06.061Z,1.57
2022-08-12T12:38:25.039Z,1.50
2022-08-12T12:40:53.297Z,1.80
2022-08-12T12:43:42.452Z,1.70
2022-08-12T12:46:11.536Z,1.70
2022-08-12T12:48:44.119Z,1.50
2022-08-12T12:51:49.007Z,1.70
2022-08-12T12:54:09.940Z,2.23
2022-08-12T12:56:42.554Z,1.50
2022-08-12T12:59:56.723Z,1.60
2022-08-12T13:02:08.114Z,1.90
2022-08-12T13:04:37.336Z,1.87
2022-08-12T13:07:06.536Z,1.50
2022-08-12T13:09:36.018Z,1.50
2022-08-12T13:12:06.535Z,1.60
2022-08-12T13:14:40.010Z,1.80
2022-08-12T13:17:11.244Z,1.70
2022-08-12T13:19:48.412Z,1.50
2022-08-12T13:22:20.072Z,1.63
2022-08-12T13:24:52.147Z,1.83
2022-08-12T13:27:28.249Z,1.60
2022-08-12T13:30:01.989Z,1.70
2022-08-12T13:32:33.007Z,1.80
2022-08-12T13:35:03.783Z,1.60
2022-08-12T13:37:54.654Z,2.00
2022-08-12T13:40:20.778Z,2.03
2022-08-12T13:42:57.905Z,1.80
2022-08-12T13:45:26.465Z,2.10
2022-08-12T13:47:58.644Z,1.90
2022-08-12T13:50:32.660Z,1.60
2022-08-12T13:53:23.428Z,1.30
2022-08-12T13:55:59.289Z,1.60
2022-08-12T13:58:28.680Z,1.23
2022-08-12T14:00:59.312Z,1.70
2022-08-12T14:03:50.152Z,1.60
2022-08-12T14:06:16.487Z,1.57
2022-08-12T14:08:49.587Z,1.80
2022-08-12T14:11:19.128Z,1.77
2022-08-12T14:14:06.077Z,1.60
2022-08-12T14:16:48.864Z,1.53
2022-08-12T14:19:21.972Z,1.70
2022-08-12T14:21:59.393Z,1.50
2022-08-12T14:24:35.162Z,2.00
2022-08-12T14:27:03.655Z,1.60
2022-08-12T14:29:38.285Z,1.80
2022-08-12T14:32:26.280Z,1.30
2022-08-12T14:34:56.670Z,1.40
2022-08-12T14:37:54.832Z,1.43
2022-08-12T14:40:18.570Z,1.60
2022-08-12T14:42:47.170Z,1.90
2022-08-12T14:45:15.055Z,1.70
2022-08-12T14:47:53.659Z,1.50
2022-08-12T14:50:58.704Z,1.50
2022-08-12T14:59:23.279Z,1.80
2022-08-12T15:01:54.544Z,1.47
2022-08-12T15:04:29.228Z,1.30
2022-08-12T15:06:58.636Z,1.40
2022-08-12T15:09:29.104Z,1.23
2022-08-12T15:12:03.790Z,1.80
2022-08-12T15:14:31.970Z,1.30
2022-08-12T15:17:00.510Z,1.60
2022-08-12T15:20:31.429Z,1.20
2022-08-12T15:22:37.267Z,1.30
2022-08-12T15:25:07.526Z,1.40
2022-08-12T15:28:03.958Z,1.30
2022-08-12T15:30:32.058Z,1.40
2022-08-12T15:33:00.046Z,2.17
2022-08-12T15:35:38.288Z,1.80
2022-08-12T15:38:21.013Z,1.30
2022-08-12T15:40:52.332Z,1.40
2022-08-12T15:43:51.229Z,1.40
2022-08-12T15:46:15.975Z,1.53
2022-08-12T15:48:46.906Z,1.40
2022-08-12T15:51:58.186Z,1.43
2022-08-12T15:54:33.168Z,1.47
2022-08-12T15:57:05.973Z,1.50
2022-08-12T16:00:03.758Z,1.30
2022-08-12T16:02:27.102Z,1.30
2022-08-12T16:04:57.770Z,1.50
2022-08-12T16:07:31.019Z,1.60
2022-08-12T16:10:10.553Z,1.37
2022-08-12T16:12:43.308Z,1.40
2022-08-12T16:15:23.681Z,1.30
2022-08-12T16:18:18.226Z,1.30
2022-08-12T16:20:42.345Z,1.80
2022-08-12T16:23:35.909Z,1.33
2022-08-12T16:26:15.129Z,1.60
2022-08-12T16:28:49.447Z,1.87
2022-08-12T16:31:23.257Z,1.67
2022-08-12T16:33:59.636Z,2.13
2022-08-12T16:36:29.180Z,2.50
2022-08-12T16:38:57.318Z,2.00
2022-08-12T16:41:28.301Z,3.53
2022-08-12T16:44:01.786Z,1.50
2022-08-12T16:46:33.971Z,2.60
2022-08-12T16:49:04.353Z,1.70
2022-08-12T16:51:37.543Z,1.43
2022-08-12T16:54:12.700Z,1.40
2022-08-12T16:56:50.882Z,1.33
2022-08-12T16:59:52.728Z,1.40
2022-08-12T17:02:31.291Z,1.80
2022-08-12T17:05:05.126Z,1.43
2022-08-12T17:07:43.819Z,1.47
2022-08-12T17:10:18.467Z,1.70
2022-08-12T17:13:09.957Z,1.70
2022-08-12T17:15:57.113Z,1.40
2022-08-12T17:18:42.742Z,1.47
2022-08-12T17:21:15.267Z,1.60
2022-08-12T17:23:53.649Z,1.50
2022-08-12T17:26:22.831Z,1.90
2022-08-12T17:28:59.124Z,1.50
2022-08-12T17:32:00.300Z,1.47
2022-08-12T17:34:38.617Z,1.47
2022-08-12T17:37:07.308Z,1.40
2022-08-12T17:40:12.354Z,1.30
2022-08-12T17:42:34.719Z,1.50
2022-08-12T17:45:17.315Z,1.33
2022-08-12T17:48:05.437Z,1.20
2022-08-12T17:50:35.810Z,1.13
2022-08-12T17:53:04.891Z,1.83
2022-08-12T17:55:44.733Z,1.30
2022-08-12T17:58:17.916Z,1.50
2022-08-12T18:00:47.300Z,1.77
2022-08-12T18:04:04.204Z,1.90
2022-08-12T18:06:13.702Z,1.57
2022-08-12T18:08:43.422Z,1.10
2022-08-12T18:12:04.505Z,1.40
2022-08-12T18:14:28.774Z,2.07
2022-08-12T18:17:00.596Z,1.30
2022-08-12T18:19:28.652Z,1.63
2022-08-12T18:22:17.460Z,1.70
2022-08-12T18:24:45.737Z,1.40
2022-08-12T18:27:27.281Z,2.07
2022-08-12T18:29:58.114Z,1.50
2022-08-12T18:32:54.187Z,1.50
2022-08-12T18:35:30.197Z,1.50
2022-08-12T18:38:11.489Z,1.73
2022-08-12T18:41:04.166Z,1.97
2022-08-12T18:43:38.109Z,2.20
2022-08-12T18:46:29.934Z,1.63
2022-08-12T18:49:17.006Z,1.70
2022-08-12T18:51:55.157Z,1.60
2022-08-12T18:54:32.390Z,1.47
2022-08-12T18:57:19.914Z,1.57
2022-08-12T19:00:07.142Z,1.20
2022-08-12T19:02:40.320Z,1.73
2022-08-12T19:05:11.711Z,1.13
2022-08-12T19:07:58.051Z,1.80
2022-08-12T19:10:30.025Z,2.30
2022-08-12T19:13:24.365Z,2.63
2022-08-12T19:15:54.126Z,2.20
2022-08-12T19:18:24.639Z,2.50
2022-08-12T19:20:59.005Z,2.00
2022-08-12T19:23:34.850Z,2.67
2022-08-12T19:26:03.401Z,2.27
2022-08-12T19:28:34.961Z,2.80
2022-08-12T19:31:56.690Z,2.50
2022-08-12T19:35:00.343Z,2.63
2022-08-12T19:37:19.959Z,2.70
2022-08-12T19:40:08.960Z,2.20
2022-08-12T19:42:42.683Z,2.60
2022-08-12T19:45:14.009Z,2.00
2022-08-12T19:47:44.706Z,2.07
2022-08-12T19:50:13.590Z,2.30
2022-08-12T19:52:52.644Z,2.20
2022-08-12T19:55:23.207Z,2.17
2022-08-12T19:58:02.908Z,2.10
2022-08-12T20:00:34.996Z,2.23
2022-08-12T20:03:05.258Z,2.47
2022-08-12T20:06:06.898Z,3.00
2022-08-12T20:08:29.383Z,2.80
2022-08-12T20:12:13.519Z,2.27
2022-08-12T20:14:00.808Z,2.10
2022-08-12T20:16:51.679Z,2.80
2022-08-12T20:19:23.373Z,2.00
2022-08-12T20:21:51.903Z,2.20
2022-08-12T20:24:24.267Z,2.93
2022-08-12T20:26:59.311Z,2.20
2022-08-12T20:29:36.635Z,2.57
2022-08-12T20:32:13.979Z,2.30
2022-08-12T20:34:48.377Z,1.73
2022-08-12T20:37:22.327Z,1.90
2022-08-12T20:40:12.658Z,2.00
2022-08-12T20:42:41.088Z,1.80
2022-08-12T20:45:10.360Z,1.87
2022-08-12T20:47:46.885Z,1.80
2022-08-12T20:50:22.789Z,1.90
2022-08-12T20:52:55.157Z,1.80
2022-08-12T20:55:43.027Z,1.90
2022-08-12T20:58:12.733Z,2.00
2022-08-12T21:00:40.720Z,1.87
2022-08-12T21:03:26.203Z,1.80
2022-08-12T21:06:14.131Z,1.60
2022-08-12T21:08:42.829Z,2.50
2022-08-12T21:11:11.881Z,1.73
2022-08-12T21:13:41.969Z,1.87
2022-08-12T21:16:10.417Z,1.63
2022-08-12T21:18:38.493Z,2.20
2022-08-12T21:21:06.569Z,1.97
2022-08-12T21:23:38.611Z,2.03
2022-08-12T21:26:16.276Z,2.00
2022-08-12T21:28:58.890Z,1.30
2022-08-12T21:32:40.890Z,2.00
2022-08-12T21:34:23.902Z,1.90
2022-08-12T21:36:59.880Z,1.90
2022-08-12T21:39:35.585Z,1.80
2022-08-12T21:42:06.964Z,1.83
2022-08-12T21:45:46.180Z,1.87
2022-08-12T21:47:28.741Z,1.90
2022-08-12T21:50:02.975Z,2.13
2022-08-12T21:52:35.630Z,1.77
2022-08-12T21:55:08.570Z,1.77
2022-08-12T21:57:51.067Z,2.20
2022-08-12T22:00:32.882Z,1.80
2022-08-12T22:04:03.193Z,2.10
2022-08-12T22:06:30.519Z,1.73
2022-08-12T22:09:08.994Z,2.30
2022-08-12T22:11:49.283Z,1.93
2022-08-12T22:14:28.251Z,2.70
2022-08-12T22:16:58.786Z,2.00
2022-08-12T22:19:28.536Z,2.00
2022-08-12T22:21:58.420Z,2.03
2022-08-12T22:24:29.975Z,2.37
2022-08-12T22:26:59.455Z,1.63
2022-08-12T22:29:59.584Z,1.80
2022-08-12T22:32:30.633Z,1.83
2022-08-12T22:35:22.243Z,2.00
2022-08-12T22:37:53.648Z,1.50
2022-08-12T22:40:23.899Z,1.50
2022-08-12T22:43:15.780Z,1.80
2022-08-12T22:46:01.090Z,1.57
2022-08-12T22:48:30.669Z,2.87
2022-08-12T22:50:59.996Z,1.50
2022-08-12T22:53:36.325Z,1.80
2022-08-12T22:56:07.155Z,1.73
2022-08-12T22:58:40.456Z,1.53
2022-08-12T23:01:10.535Z,1.73
2022-08-12T23:03:48.930Z,1.93
2022-08-12T23:06:19.711Z,1.60
2022-08-12T23:08:48.323Z,1.53
2022-08-12T23:11:17.112Z,1.40
2022-08-12T23:13:55.270Z,1.70
2022-08-12T23:16:31.449Z,1.83
2022-08-12T23:19:10.870Z,1.60
2022-08-12T23:22:05.131Z,1.90
2022-08-12T23:24:55.806Z,1.70
2022-08-12T23:27:50.218Z,1.73
2022-08-12T23:30:24.650Z,1.73
2022-08-12T23:32:59.938Z,1.90
2022-08-12T23:35:53.602Z,2.00
2022-08-12T23:38:30.612Z,2.30
2022-08-12T23:41:01.203Z,2.00
2022-08-12T23:43:39.729Z,1.60
2022-08-12T23:46:09.525Z,1.90
2022-08-12T23:48:37.430Z,1.90
2022-08-12T23:51:22.149Z,1.93
2022-08-12T23:53:53.519Z,1.73
2022-08-12T23:56:23.631Z,1.73
2022-08-12T23:58:52.654Z,1.50
